Time;durP1;ratioP1;P1;durP2;ratioP2;P2;SDS_P1;SDS_P2;PMS_P1;PMS_P2;Temp;Humidity;BMP_temperature;BMP_pressure;BME280_temperature;BME280_humidity;BME280_pressure;Samples;Min_cycle;Max_cycle;Signal;HPM_P1;HPM_P2
2023/01/09 00:00:42;;;;;;;19.33;15.37;;;10.30;46.90;;;;;;5032871;28;20518;-54
2023/01/09 00:03:08;;;;;;;22.23;13.40;;;10.40;46.70;;;;;;5033012;28;20811;-53
2023/01/09 00:05:33;;;;;;;26.50;13.60;;;10.40;46.40;;;;;;5032725;28;20185;-54
2023/01/09 00:07:59;;;;;;;17.50;14.87;;;10.40;46.40;;;;;;5032832;28;20401;-54
2023/01/09 00:10:25;;;;;;;18.13;14.73;;;10.40;46.40;;;;;;5032606;28;20200;-54
2023/01/09 00:12:51;;;;;;;20.93;14.07;;;10.40;46.40;;;;;;5032709;28;20192;-54
2023/01/09 00:15:16;;;;;;;18.00;13.63;;;10.40;46.50;;;;;;5032505;28;20209;-54
2023/01/09 00:17:42;;;;;;;19.13;13.60;;;10.40;46.50;;;;;;5032537;28;20178;-53
2023/01/09 00:20:10;;;;;;;16.13;13.17;;;10.40;46.50;;;;;;5032548;28;20198;-54
2023/01/09 00:22:37;;;;;;;16.80;12.65;;;10.50;46.50;;;;;;5032562;28;20174;-54
2023/01/09 00:25:03;;;;;;;19.60;14.43;;;10.40;46.20;;;;;;5032221;28;20181;-54
2023/01/09 00:27:33;;;;;;;17.38;15.13;;;10.40;46.30;;;;;;5032807;28;20536;-54
2023/01/09 00:29:59;;;;;;;18.65;12.80;;;10.40;46.30;;;;;;5032485;28;20260;-53
2023/01/09 00:32:25;;;;;;;19.25;13.70;;;10.40;46.20;;;;;;5032321;28;20595;-54
2023/01/09 00:34:51;;;;;;;23.42;14.30;;;10.40;46.90;;;;;;5032159;28;20189;-54
2023/01/09 00:37:17;;;;;;;22.30;13.63;;;10.30;46.40;;;;;;5032263;28;20182;-54
2023/01/09 00:39:43;;;;;;;20.50;15.20;;;10.30;46.80;;;;;;5032099;28;20428;-53
2023/01/09 00:42:18;;;;;;;20.50;13.80;;;10.40;46.30;;;;;;5031881;28;20197;-54
2023/01/09 00:44:51;;;;;;;18.40;13.80;;;10.30;46.40;;;;;;5031978;28;20165;-54
2023/01/09 00:47:23;;;;;;;17.10;13.07;;;10.30;46.30;;;;;;5032183;28;20170;-54
2023/01/09 00:49:49;;;;;;;19.88;12.32;;;10.40;46.20;;;;;;5032226;28;20189;-53
2023/01/09 00:52:16;;;;;;;22.00;15.23;;;10.40;46.20;;;;;;5032030;28;20190;-53
2023/01/09 00:54:43;;;;;;;24.88;15.40;;;10.40;46.20;;;;;;5031923;28;20176;-54
2023/01/09 00:57:11;;;;;;;22.50;15.20;;;10.20;46.40;;;;;;5032243;28;20538;-54
2023/01/09 00:59:37;;;;;;;20.55;14.50;;;10.30;46.50;;;;;;5031962;28;20286;-54
2023/01/09 01:02:03;;;;;;;21.42;15.02;;;10.20;46.30;;;;;;5032014;28;20189;-53
2023/01/09 01:09:57;;;;;;;18.75;14.75;;;10.20;46.50;;;;;;5031920;28;20205;-54
2023/01/09 01:12:23;;;;;;;21.83;14.30;;;10.10;46.50;;;;;;5031896;28;20178;-53
2023/01/09 01:14:49;;;;;;;20.43;14.43;;;10.10;46.50;;;;;;5032001;28;20253;-54
2023/01/09 01:17:14;;;;;;;21.90;14.00;;;10.10;46.70;;;;;;5031806;28;20397;-54
2023/01/09 01:19:40;;;;;;;23.13;14.20;;;10.10;46.70;;;;;;5031753;28;20192;-54
2023/01/09 01:22:06;;;;;;;17.50;13.47;;;10.10;46.60;;;;;;5032121;28;20174;-54
2023/01/09 01:24:32;;;;;;;23.13;14.10;;;10.10;46.70;;;;;;5031756;28;20530;-53
2023/01/09 01:26:58;;;;;;;17.70;13.35;;;10.10;46.70;;;;;;5031832;28;20170;-54
2023/01/09 01:29:23;;;;;;;19.70;13.70;;;10.00;46.70;;;;;;5031743;28;20201;-53
2023/01/09 01:31:51;;;;;;;21.83;14.17;;;10.00;46.60;;;;;;5031732;28;20231;-54
2023/01/09 01:34:16;;;;;;;23.30;14.43;;;10.00;46.70;;;;;;5031657;28;20245;-54
2023/01/09 01:36:42;;;;;;;19.80;12.50;;;10.00;46.70;;;;;;5031870;28;20221;-54
2023/01/09 01:39:08;;;;;;;19.10;14.17;;;10.10;46.60;;;;;;5031796;28;20673;-53
2023/01/09 01:41:34;;;;;;;20.57;13.97;;;10.00;46.70;;;;;;5031729;28;20244;-53
2023/01/09 01:44:03;;;;;;;20.70;13.93;;;10.00;46.60;;;;;;5031935;28;20197;-53
2023/01/09 01:46:30;;;;;;;20.92;14.40;;;10.10;46.50;;;;;;5031700;28;20170;-53
2023/01/09 01:49:09;;;;;;;23.00;15.50;;;10.10;46.80;;;;;;5031773;28;20198;-52
2023/01/09 01:51:40;;;;;;;18.63;13.90;;;10.20;46.20;;;;;;5031910;28;20213;-54
2023/01/09 01:54:09;;;;;;;21.00;12.95;;;10.20;46.10;;;;;;5032738;28;20263;-54
2023/01/09 01:56:40;;;;;;;19.98;12.73;;;10.10;46.20;;;;;;5035098;28;20174;-54
2023/01/09 01:59:39;;;;;;;20.77;13.55;;;10.10;46.40;;;;;;5034977;28;20213;-54
2023/01/09 02:02:06;;;;;;;18.10;12.38;;;10.20;46.30;;;;;;5034937;28;20202;-54
2023/01/09 02:04:35;;;;;;;19.13;13.00;;;10.10;46.20;;;;;;5034917;28;20206;-54
2023/01/09 02:07:06;;;;;;;19.55;13.55;;;10.20;46.20;;;;;;5035304;28;20181;-54
2023/01/09 02:09:31;;;;;;;22.65;13.55;;;10.20;46.00;;;;;;5033721;28;20201;-54
2023/01/09 02:11:59;;;;;;;20.77;13.13;;;10.10;46.20;;;;;;5035008;28;20518;-54
2023/01/09 02:14:28;;;;;;;18.52;12.68;;;10.10;46.40;;;;;;5034793;28;20174;-54
2023/01/09 02:17:02;;;;;;;15.65;12.50;;;10.10;46.10;;;;;;5034943;28;20220;-53
2023/01/09 02:19:56;;;;;;;18.20;12.75;;;10.10;46.20;;;;;;5035061;28;20200;-54
2023/01/09 02:23:09;;;;;;;18.17;12.80;;;10.10;45.90;;;;;;5035053;28;20190;-53
2023/01/09 02:25:40;;;;;;;19.02;12.80;;;10.30;45.90;;;;;;5034538;28;20192;-54
2023/01/09 02:28:44;;;;;;;15.80;13.10;;;10.20;45.70;;;;;;5034609;28;20176;-53
2023/01/09 02:31:37;;;;;;;15.90;11.88;;;10.20;45.80;;;;;;5034770;28;20174;-54
2023/01/09 02:34:34;;;;;;;20.42;13.88;;;10.30;45.70;;;;;;5035000;28;20162;-53
2023/01/09 02:37:05;;;;;;;20.95;12.75;;;10.20;45.70;;;;;;5034552;28;20174;-54
2023/01/09 02:39:40;;;;;;;16.08;10.68;;;10.20;45.80;;;;;;5034517;28;20201;-53
2023/01/09 02:42:14;;;;;;;17.80;11.68;;;10.20;45.70;;;;;;5034472;28;20227;-54
2023/01/09 02:44:41;;;;;;;20.80;13.30;;;10.30;45.70;;;;;;5034298;28;20248;-54
2023/01/09 02:47:16;;;;;;;22.05;13.15;;;10.20;46.40;;;;;;5034338;28;20182;-53
2023/01/09 02:49:46;;;;;;;16.35;11.45;;;10.20;45.80;;;;;;5034257;28;20240;-54
2023/01/09 02:52:59;;;;;;;17.02;12.43;;;10.20;46.00;;;;;;5034605;28;20252;-54
2023/01/09 02:55:48;;;;;;;18.23;13.35;;;10.20;46.10;;;;;;5034242;28;20162;-53
2023/01/09 02:58:20;;;;;;;19.90;12.75;;;10.20;46.30;;;;;;5034034;28;20166;-54
2023/01/09 03:00:55;;;;;;;18.45;13.10;;;10.20;46.50;;;;;;5034291;28;20190;-54
2023/01/09 03:03:24;;;;;;;21.58;14.25;;;10.30;46.50;;;;;;5033971;28;20622;-54
2023/01/09 03:06:27;;;;;;;22.20;14.85;;;10.40;46.60;;;;;;5033191;28;20185;-53
2023/01/09 03:09:05;;;;;;;20.98;12.65;;;10.30;46.80;;;;;;5033581;28;20197;-54
2023/01/09 03:11:38;;;;;;;20.73;14.40;;;10.40;46.90;;;;;;5034211;28;20177;-54
2023/01/09 03:14:11;;;;;;;21.45;13.13;;;10.30;47.00;;;;;;5033806;28;20158;-54
2023/01/09 03:16:37;;;;;;;19.27;13.30;;;10.30;47.30;;;;;;5033700;28;20177;-54
2023/01/09 03:19:12;;;;;;;19.55;12.75;;;10.30;47.50;;;;;;5033846;28;20194;-54
2023/01/09 03:21:38;;;;;;;19.92;13.20;;;10.30;47.80;;;;;;5033713;28;20216;-54
2023/01/09 03:24:04;;;;;;;20.60;14.00;;;10.20;47.80;;;;;;5033679;28;20166;-53
2023/01/09 03:26:30;;;;;;;16.33;13.43;;;10.20;48.00;;;;;;5033450;28;20256;-53
2023/01/09 03:28:57;;;;;;;19.42;13.60;;;10.20;48.20;;;;;;5033735;28;20232;-53
2023/01/09 03:31:24;;;;;;;20.98;14.85;;;10.10;48.30;;;;;;5033529;28;20277;-54
2023/01/09 03:33:49;;;;;;;19.13;14.00;;;10.10;48.50;;;;;;5033785;28;20181;-54
2023/01/09 03:36:17;;;;;;;22.17;14.43;;;10.10;48.60;;;;;;5033317;28;20327;-54
2023/01/09 03:38:43;;;;;;;18.23;13.75;;;10.20;48.60;;;;;;5033287;28;20331;-54
2023/01/09 03:41:09;;;;;;;22.97;14.97;;;10.20;49.30;;;;;;5033211;28;20297;-53
2023/01/09 03:43:35;;;;;;;20.87;15.00;;;10.20;48.60;;;;;;5033369;28;20367;-53
2023/01/09 03:46:02;;;;;;;18.02;12.52;;;10.30;48.80;;;;;;5033057;28;20530;-53
2023/01/09 03:48:28;;;;;;;21.77;13.82;;;10.30;49.00;;;;;;5033227;28;20534;-54
2023/01/09 03:50:54;;;;;;;24.87;15.03;;;10.20;49.10;;;;;;5033120;28;20181;-54
2023/01/09 03:53:21;;;;;;;18.50;13.80;;;10.20;49.30;;;;;;5033060;28;20447;-53
2023/01/09 03:55:49;;;;;;;22.02;14.60;;;10.10;49.50;;;;;;5033024;28;20181;-52
2023/01/09 03:58:16;;;;;;;17.63;13.95;;;10.10;49.70;;;;;;5032888;28;20576;-53
2023/01/09 04:00:44;;;;;;;21.27;13.60;;;10.10;49.70;;;;;;5032981;28;20283;-53
2023/01/09 04:03:11;;;;;;;19.13;13.77;;;10.10;49.90;;;;;;5033066;28;20546;-53
2023/01/09 04:05:37;;;;;;;17.88;13.05;;;10.10;49.90;;;;;;5032972;28;20194;-53
2023/01/09 04:08:03;;;;;;;21.70;12.10;;;10.10;49.90;;;;;;5033009;28;20170;-53
2023/01/09 04:10:29;;;;;;;20.08;15.07;;;10.00;50.00;;;;;;5032722;28;20198;-53
2023/01/09 04:12:54;;;;;;;22.73;13.57;;;10.00;50.30;;;;;;5032712;28;20539;-53
2023/01/09 04:15:21;;;;;;;17.87;13.47;;;9.90;50.20;;;;;;5032445;28;20415;-53
2023/01/09 04:17:46;;;;;;;19.38;12.73;;;10.00;50.10;;;;;;5031911;28;20432;-54
2023/01/09 04:20:12;;;;;;;21.23;13.97;;;10.00;50.00;;;;;;5032444;28;20693;-53
2023/01/09 04:22:38;;;;;;;18.30;12.30;;;10.10;50.00;;;;;;5032493;28;20173;-53
2023/01/09 04:25:04;;;;;;;19.80;12.43;;;10.10;49.90;;;;;;5032296;28;20408;-54
2023/01/09 04:27:30;;;;;;;16.83;11.55;;;10.10;49.90;;;;;;5032389;28;20186;-54
2023/01/09 04:29:56;;;;;;;18.50;12.93;;;10.10;49.90;;;;;;5032348;28;20186;-53
2023/01/09 04:32:21;;;;;;;22.20;13.00;;;10.10;49.90;;;;;;5032500;28;20169;-53
2023/01/09 04:34:47;;;;;;;19.50;13.53;;;10.10;49.90;;;;;;5032187;28;20212;-54
2023/01/09 04:37:13;;;;;;;18.40;14.10;;;10.10;49.70;;;;;;5032299;28;20238;-54
2023/01/09 04:39:43;;;;;;;18.47;13.30;;;10.10;49.70;;;;;;5032261;28;20630;-54
2023/01/09 04:42:09;;;;;;;18.25;14.25;;;10.20;49.60;;;;;;5032054;28;20456;-53
2023/01/09 04:44:35;;;;;;;21.73;14.32;;;10.10;49.50;;;;;;5032038;28;20178;-54
2023/01/09 04:47:01;;;;;;;24.10;15.20;;;10.10;49.70;;;;;;5032245;28;20223;-54
2023/01/09 04:49:27;;;;;;;18.80;12.20;;;10.20;49.50;;;;;;5032089;28;20194;-53
2023/01/09 04:51:53;;;;;;;23.40;15.33;;;10.20;49.50;;;;;;5032513;28;20409;-53
2023/01/09 04:54:19;;;;;;;18.83;13.43;;;10.20;49.40;;;;;;5032222;28;20408;-53
2023/01/09 04:56:45;;;;;;;22.60;14.10;;;10.20;49.50;;;;;;5031944;28;20385;-54
2023/01/09 04:59:11;;;;;;;21.35;14.48;;;10.10;49.50;;;;;;5032158;28;20210;-53
2023/01/09 05:01:37;;;;;;;19.37;13.00;;;10.00;49.80;;;;;;5031941;28;20252;-54
2023/01/09 05:04:03;;;;;;;24.00;13.40;;;10.00;49.90;;;;;;5032238;28;20180;-53
2023/01/09 05:06:29;;;;;;;17.83;12.77;;;10.00;50.00;;;;;;5031685;28;20169;-53
2023/01/09 05:08:55;;;;;;;20.17;13.20;;;9.90;50.10;;;;;;5031909;28;20599;-52
2023/01/09 05:11:22;;;;;;;21.15;13.95;;;10.00;50.10;;;;;;5031879;28;20409;-53
2023/01/09 05:13:47;;;;;;;20.95;14.63;;;10.00;49.90;;;;;;5032175;28;20181;-53
2023/01/09 05:16:13;;;;;;;17.30;12.17;;;10.00;49.90;;;;;;5031787;28;20171;-53
2023/01/09 05:18:39;;;;;;;16.20;12.40;;;10.10;49.60;;;;;;5031796;28;20251;-53
2023/01/09 05:21:05;;;;;;;21.23;12.47;;;10.10;49.50;;;;;;5031752;28;20228;-52
2023/01/09 05:23:30;;;;;;;19.00;13.97;;;10.20;49.10;;;;;;5031821;28;20196;-53
2023/01/09 05:25:56;;;;;;;15.63;12.80;;;10.20;49.10;;;;;;5031645;28;20924;-53
2023/01/09 05:28:22;;;;;;;21.30;12.47;;;10.10;49.00;;;;;;5031709;28;20166;-53
2023/01/09 05:30:48;;;;;;;20.03;12.23;;;10.10;49.10;;;;;;5035673;28;20174;-53
2023/01/09 05:33:14;;;;;;;17.73;12.60;;;10.10;48.80;;;;;;5035742;28;20635;-53
2023/01/09 05:35:39;;;;;;;19.97;11.70;;;10.10;49.00;;;;;;5035667;28;20265;-53
2023/01/09 05:38:05;;;;;;;20.63;13.40;;;10.00;49.10;;;;;;5035604;28;20534;-53
2023/01/09 05:40:31;;;;;;;21.13;13.30;;;10.00;48.60;;;;;;5035630;28;20684;-52
2023/01/09 05:42:57;;;;;;;16.77;11.80;;;9.90;49.00;;;;;;5035689;28;20240;-53
2023/01/09 05:45:23;;;;;;;20.53;12.87;;;10.00;49.10;;;;;;5035309;28;20170;-53
2023/01/09 05:47:48;;;;;;;17.17;12.60;;;9.90;48.90;;;;;;5035460;28;20170;-53
2023/01/09 05:50:14;;;;;;;16.83;12.17;;;10.00;48.70;;;;;;5035579;28;20467;-53
2023/01/09 05:52:40;;;;;;;21.50;12.67;;;10.00;48.40;;;;;;5035430;28;20499;-53
2023/01/09 05:55:06;;;;;;;15.77;11.80;;;10.00;48.40;;;;;;5035163;28;20419;-52
2023/01/09 05:57:32;;;;;;;15.60;11.05;;;10.00;49.10;;;;;;5035235;28;20257;-53
2023/01/09 05:59:58;;;;;;;18.90;12.80;;;10.00;48.30;;;;;;5034927;28;20284;-53
2023/01/09 06:02:24;;;;;;;19.50;12.37;;;9.90;48.20;;;;;;5035187;28;20174;-53
2023/01/09 06:04:49;;;;;;;18.90;12.83;;;9.90;48.30;;;;;;5034909;28;20182;-52
2023/01/09 06:07:15;;;;;;;18.90;12.33;;;9.90;48.40;;;;;;5035119;28;20177;-53
2023/01/09 06:09:41;;;;;;;17.33;12.43;;;9.90;48.30;;;;;;5035055;28;20186;-53
2023/01/09 06:12:07;;;;;;;17.73;13.03;;;9.90;48.20;;;;;;5034932;28;20188;-53
2023/01/09 06:14:33;;;;;;;20.23;13.77;;;10.00;48.10;;;;;;5034770;28;20416;-53
2023/01/09 06:16:58;;;;;;;14.97;12.10;;;10.00;48.20;;;;;;5035090;28;20772;-53
2023/01/09 06:19:24;;;;;;;19.90;12.70;;;10.00;47.80;;;;;;5034629;28;20204;-53
2023/01/09 06:21:50;;;;;;;17.83;12.53;;;10.00;47.80;;;;;;5034761;28;20227;-52
2023/01/09 06:24:16;;;;;;;20.97;12.07;;;10.00;47.70;;;;;;5034697;28;20209;-53
2023/01/09 06:26:41;;;;;;;20.90;13.83;;;10.00;47.70;;;;;;5034542;28;20542;-53
2023/01/09 06:29:07;;;;;;;19.03;13.20;;;10.00;47.40;;;;;;5034664;28;20200;-53
2023/01/09 06:31:33;;;;;;;22.23;13.73;;;10.10;47.60;;;;;;5034920;28;20252;-53
2023/01/09 06:33:59;;;;;;;18.23;12.17;;;10.00;47.60;;;;;;5034478;28;20174;-53
2023/01/09 06:36:25;;;;;;;16.60;11.30;;;10.10;47.70;;;;;;5033133;28;20174;-53
2023/01/09 06:38:50;;;;;;;17.20;11.80;;;10.00;47.30;;;;;;5034291;28;20283;-53
2023/01/09 06:41:16;;;;;;;16.57;11.10;;;10.00;47.40;;;;;;5033336;28;20193;-54
2023/01/09 06:43:42;;;;;;;17.13;11.82;;;10.00;47.40;;;;;;5034362;28;20789;-53
2023/01/09 06:46:08;;;;;;;17.33;11.87;;;10.00;47.60;;;;;;5034352;28;20211;-53
2023/01/09 06:48:34;;;;;;;16.67;10.38;;;10.00;47.30;;;;;;5034405;28;20197;-53
2023/01/09 06:51:00;;;;;;;14.50;10.50;;;10.10;47.30;;;;;;5034276;28;20205;-53
2023/01/09 06:53:26;;;;;;;16.40;12.83;;;10.10;47.20;;;;;;5034166;28;20495;-53
2023/01/09 06:55:52;;;;;;;18.90;10.83;;;10.10;47.60;;;;;;5033939;28;20169;-53
2023/01/09 06:58:17;;;;;;;17.33;11.53;;;10.10;47.00;;;;;;5033979;28;20934;-53
2023/01/09 07:00:43;;;;;;;14.60;10.60;;;10.20;47.00;;;;;;5034116;28;20227;-52
2023/01/09 07:03:10;;;;;;;17.33;11.63;;;10.20;46.90;;;;;;5034014;28;20174;-52
2023/01/09 07:05:42;;;;;;;17.05;11.65;;;10.10;46.50;;;;;;5033656;28;20182;-53
2023/01/09 07:08:08;;;;;;;19.13;11.35;;;10.10;46.80;;;;;;5034060;28;20178;-53
2023/01/09 07:10:34;;;;;;;19.20;12.73;;;10.10;46.80;;;;;;5033965;28;20194;-53
2023/01/09 07:13:00;;;;;;;18.98;12.55;;;10.10;46.80;;;;;;5033856;28;20178;-53
2023/01/09 07:15:25;;;;;;;18.40;12.37;;;10.00;46.90;;;;;;5033491;28;20189;-53
2023/01/09 07:17:52;;;;;;;20.13;13.70;;;10.00;46.90;;;;;;5033982;28;20178;-53
2023/01/09 07:20:18;;;;;;;18.77;13.13;;;10.00;46.90;;;;;;5033537;28;20701;-52
2023/01/09 07:22:46;;;;;;;16.00;11.07;;;10.00;46.80;;;;;;5033659;28;20173;-53
2023/01/09 07:25:12;;;;;;;16.92;12.15;;;10.10;46.90;;;;;;5033431;28;20411;-53
2023/01/09 07:27:38;;;;;;;18.25;12.80;;;10.10;46.80;;;;;;5033603;28;20657;-53
2023/01/09 07:30:05;;;;;;;18.67;11.73;;;10.10;46.70;;;;;;5033713;28;20202;-51
2023/01/09 07:32:31;;;;;;;20.73;12.60;;;10.10;46.60;;;;;;5033725;28;20244;-53
2023/01/09 07:34:57;;;;;;;14.70;10.38;;;10.10;46.50;;;;;;5033486;28;20173;-53
2023/01/09 07:37:23;;;;;;;19.33;13.13;;;10.10;46.60;;;;;;5033424;28;20224;-53
2023/01/09 07:39:49;;;;;;;19.30;11.90;;;10.10;46.50;;;;;;5031960;28;20857;-52
2023/01/09 07:42:15;;;;;;;25.87;14.20;;;10.10;46.40;;;;;;5033062;28;20202;-53
2023/01/09 07:44:40;;;;;;;22.35;13.48;;;10.10;46.60;;;;;;5033234;28;20185;-53
2023/01/09 07:47:06;;;;;;;20.90;13.93;;;10.10;46.70;;;;;;5033498;28;20170;-53
2023/01/09 07:49:32;;;;;;;19.27;13.00;;;10.00;46.70;;;;;;5033050;28;20244;-52
2023/01/09 07:51:58;;;;;;;16.90;11.73;;;10.10;46.90;;;;;;5033201;28;20219;-53
2023/01/09 07:54:24;;;;;;;18.50;13.32;;;10.10;46.80;;;;;;5032787;28;20177;-52
2023/01/09 07:56:50;;;;;;;16.73;13.20;;;10.20;46.70;;;;;;5033051;28;20189;-54
2023/01/09 07:59:15;;;;;;;18.17;12.30;;;10.20;46.50;;;;;;5032753;28;20224;-53
2023/01/09 08:01:41;;;;;;;22.03;12.80;;;10.30;46.60;;;;;;5032795;28;20456;-54
2023/01/09 08:04:07;;;;;;;18.33;14.10;;;10.40;46.50;;;;;;5032856;28;20252;-52
2023/01/09 08:06:32;;;;;;;18.10;12.67;;;10.40;46.40;;;;;;5032634;28;20244;-53
2023/01/09 08:08:58;;;;;;;18.20;11.77;;;10.40;46.30;;;;;;5033014;28;20194;-53
2023/01/09 08:11:24;;;;;;;17.90;12.47;;;10.40;46.00;;;;;;5032780;28;20177;-53
2023/01/09 08:13:50;;;;;;;18.80;12.77;;;10.50;46.10;;;;;;5032617;28;20170;-53
2023/01/09 08:16:16;;;;;;;18.07;12.10;;;10.50;46.10;;;;;;5032493;28;20174;-52
2023/01/09 08:18:42;;;;;;;17.27;11.50;;;10.50;46.00;;;;;;5032559;28;20436;-54
2023/01/09 08:21:10;;;;;;;22.13;14.60;;;10.50;45.80;;;;;;5032414;28;20484;-54
2023/01/09 08:23:36;;;;;;;17.15;11.88;;;10.60;45.90;;;;;;5032692;28;20409;-54
2023/01/09 08:26:03;;;;;;;26.98;14.13;;;10.60;45.70;;;;;;5032529;28;20198;-54
2023/01/09 08:28:28;;;;;;;22.98;12.15;;;10.60;45.70;;;;;;5032583;28;20238;-53
2023/01/09 08:30:54;;;;;;;15.93;10.70;;;10.70;45.90;;;;;;5032645;28;20182;-53
2023/01/09 08:33:21;;;;;;;20.10;13.00;;;10.70;46.00;;;;;;5032489;28;20708;-54
2023/01/09 08:35:46;;;;;;;20.35;11.95;;;10.80;45.90;;;;;;5032397;28;20811;-54
2023/01/09 08:38:12;;;;;;;16.43;11.90;;;10.90;45.80;;;;;;5032540;28;20265;-54
2023/01/09 08:40:38;;;;;;;18.77;11.53;;;10.90;45.90;;;;;;5032195;28;20626;-53
2023/01/09 08:49:04;;;;;;;18.73;10.07;;;11.10;45.80;;;;;;5029938;28;20272;-54
2023/01/09 08:51:30;;;;;;;17.40;10.53;;;11.10;45.80;;;;;;5029746;28;20631;-54
2023/01/09 08:53:56;;;;;;;18.73;11.77;;;11.20;45.80;;;;;;5029834;28;20186;-53
2023/01/09 08:56:21;;;;;;;18.37;11.23;;;11.30;45.70;;;;;;5029506;28;20180;-53
2023/01/09 08:58:47;;;;;;;18.53;12.57;;;11.30;45.70;;;;;;5029589;28;20206;-53
2023/01/09 09:01:13;;;;;;;18.03;10.47;;;11.30;45.70;;;;;;5029741;28;20229;-54
2023/01/09 09:03:38;;;;;;;14.90;11.00;;;11.40;45.30;;;;;;5029162;28;20182;-54
2023/01/09 09:06:05;;;;;;;13.87;10.30;;;11.30;45.40;;;;;;5029374;28;20224;-54
2023/01/09 09:08:31;;;;;;;14.55;10.55;;;11.40;45.50;;;;;;5029555;28;20174;-54
2023/01/09 09:10:56;;;;;;;16.00;10.40;;;11.40;45.70;;;;;;5029679;28;20260;-54
2023/01/09 09:13:22;;;;;;;11.93;10.10;;;11.40;45.80;;;;;;5029667;28;20243;-53
2023/01/09 09:15:48;;;;;;;14.70;9.60;;;11.50;46.00;;;;;;5029445;28;20201;-55
2023/01/09 09:18:14;;;;;;;17.00;11.03;;;11.50;46.00;;;;;;5032112;28;20639;-53
2023/01/09 09:20:39;;;;;;;18.27;10.87;;;11.50;46.00;;;;;;5031590;28;20212;-54
2023/01/09 09:23:07;;;;;;;15.33;8.83;;;11.50;46.20;;;;;;5032038;28;20174;-53
2023/01/09 09:25:33;;;;;;;12.25;8.90;;;11.60;46.10;;;;;;5031514;28;20947;-53
2023/01/09 09:27:59;;;;;;;14.35;10.00;;;11.60;46.00;;;;;;5031905;28;20182;-53
2023/01/09 09:30:26;;;;;;;12.80;8.57;;;11.70;46.10;;;;;;5031704;28;20201;-53
2023/01/09 09:32:51;;;;;;;14.05;9.88;;;11.70;46.20;;;;;;5031748;28;20204;-54
2023/01/09 09:35:19;;;;;;;9.13;7.80;;;11.80;46.30;;;;;;5031426;28;20177;-53
2023/01/09 09:37:57;;;;;;;15.43;8.80;;;11.80;46.50;;;;;;5031917;28;20185;-54
2023/01/09 09:41:06;;;;;;;11.07;8.32;;;11.90;46.50;;;;;;5031502;28;20236;-54
2023/01/09 09:46:38;;;;;;;8.02;6.47;;;12.10;46.60;;;;;;5031423;28;20176;-54
2023/01/09 09:49:27;;;;;;;6.03;4.75;;;12.20;46.60;;;;;;5031447;28;20190;-53
2023/01/09 09:52:35;;;;;;;4.07;3.15;;;12.20;47.10;;;;;;5031518;28;20186;-53
2023/01/09 09:55:14;;;;;;;4.10;2.85;;;12.20;48.00;;;;;;5031500;28;20221;-52
2023/01/09 09:57:40;;;;;;;7.50;5.25;;;12.30;48.60;;;;;;5031829;28;20257;-54
2023/01/09 10:00:14;;;;;;;7.50;4.05;;;12.40;48.80;;;;;;5031149;28;20622;-53
2023/01/09 10:03:04;;;;;;;4.03;3.72;;;12.40;48.80;;;;;;5030617;28;20253;-54
2023/01/09 10:05:35;;;;;;;4.95;3.13;;;12.50;48.80;;;;;;5031515;28;20166;-54
2023/01/09 10:08:08;;;;;;;5.03;2.65;;;12.50;48.80;;;;;;5031499;28;20237;-54
2023/01/09 10:10:49;;;;;;;4.20;2.58;;;12.60;48.70;;;;;;5031238;28;20214;-53
2023/01/09 10:16:02;;;;;;;2.80;2.25;;;12.80;48.40;;;;;;5032506;28;20184;-53
2023/01/09 10:19:14;;;;;;;6.70;2.40;;;12.80;48.20;;;;;;5034836;28;20276;-54
2023/01/09 10:21:43;;;;;;;5.03;3.40;;;12.80;48.10;;;;;;5034770;28;20213;-53
2023/01/09 10:24:50;;;;;;;5.25;3.00;;;12.80;48.40;;;;;;5035013;28;20174;-53
2023/01/09 10:27:36;;;;;;;3.90;2.80;;;12.80;48.30;;;;;;5012459;28;20301;-54
2023/01/09 10:30:47;;;;;;;5.25;3.75;;;12.80;48.40;;;;;;5010671;28;20426;-54
2023/01/09 10:33:34;;;;;;;4.22;2.53;;;12.80;48.40;;;;;;5029704;28;20205;-53
2023/01/09 10:36:19;;;;;;;4.22;1.92;;;12.80;48.80;;;;;;5034451;28;20166;-54
2023/01/09 10:38:48;;;;;;;3.63;2.45;;;12.70;48.80;;;;;;5034392;28;20712;-53
2023/01/09 10:41:45;;;;;;;3.40;1.88;;;12.70;49.20;;;;;;5034392;28;20670;-54
2023/01/09 10:44:19;;;;;;;4.72;2.30;;;12.70;49.00;;;;;;5033969;28;20240;-52
2023/01/09 10:46:53;;;;;;;2.80;2.50;;;12.60;49.30;;;;;;5034253;28;20177;-52
2023/01/09 10:49:20;;;;;;;3.00;1.80;;;12.60;49.80;;;;;;5034295;28;20193;-54
2023/01/09 10:51:48;;;;;;;2.65;1.70;;;12.50;50.10;;;;;;5034342;28;20186;-54
2023/01/09 10:54:17;;;;;;;5.10;1.75;;;12.40;50.10;;;;;;5034051;28;20170;-53
2023/01/09 10:57:15;;;;;;;1.77;1.30;;;12.30;50.40;;;;;;5034440;28;20235;-54
2023/01/09 10:59:41;;;;;;;1.80;1.00;;;12.30;50.20;;;;;;5034081;28;20209;-53
2023/01/09 11:02:28;;;;;;;2.65;1.90;;;12.10;50.50;;;;;;5034015;28;20190;-54
2023/01/09 11:04:53;;;;;;;5.30;1.77;;;12.20;50.40;;;;;;5033900;28;20238;-54
2023/01/09 11:07:23;;;;;;;2.10;1.33;;;12.30;50.40;;;;;;5034312;28;20261;-54
2023/01/09 11:10:10;;;;;;;3.08;1.65;;;12.30;50.10;;;;;;5033886;28;20197;-54
2023/01/09 11:12:37;;;;;;;3.88;2.35;;;12.40;50.00;;;;;;5033820;28;20170;-53
2023/01/09 11:15:15;;;;;;;3.45;1.75;;;12.40;49.70;;;;;;5033645;28;20262;-54
2023/01/09 11:17:42;;;;;;;3.67;1.77;;;12.50;49.10;;;;;;5033974;28;20181;-54
2023/01/09 11:20:28;;;;;;;2.58;1.60;;;12.50;49.60;;;;;;5033551;28;20694;-54
2023/01/09 11:22:55;;;;;;;1.67;1.30;;;12.60;49.50;;;;;;5033781;28;20232;-53
2023/01/09 11:25:26;;;;;;;1.98;1.13;;;12.70;49.30;;;;;;5039360;23;20218;-52
2023/01/09 11:28:10;;;;;;;2.13;1.35;;;12.80;48.40;;;;;;5029397;28;20265;-53
2023/01/09 11:30:50;;;;;;;2.17;1.10;;;12.90;47.90;;;;;;5033505;28;20158;-53
2023/01/09 11:33:23;;;;;;;2.65;1.33;;;12.90;46.90;;;;;;5033507;28;20537;-53
2023/01/09 11:36:03;;;;;;;2.20;1.00;;;12.90;46.70;;;;;;5033388;28;20206;-53
2023/01/09 11:38:31;;;;;;;3.13;1.50;;;12.70;45.80;;;;;;5033514;28;20162;-53
2023/01/09 11:41:03;;;;;;;1.40;0.90;;;12.70;45.80;;;;;;5033188;28;20676;-53
2023/01/09 11:43:37;;;;;;;2.83;1.15;;;12.70;45.90;;;;;;5033306;28;20186;-53
2023/01/09 11:46:27;;;;;;;2.05;0.88;;;12.80;45.70;;;;;;5033011;28;20189;-53
2023/01/09 11:48:58;;;;;;;1.40;0.70;;;12.90;46.00;;;;;;5033217;28;20518;-53
2023/01/09 11:51:29;;;;;;;2.88;0.75;;;12.80;44.70;;;;;;5033274;28;20158;-53
2023/01/09 11:54:18;;;;;;;2.10;0.95;;;12.90;44.20;;;;;;5033399;28;20296;-53
2023/01/09 11:56:45;;;;;;;2.33;1.55;;;13.00;44.50;;;;;;5033079;28;20174;-53
2023/01/09 11:59:12;;;;;;;1.83;0.77;;;13.10;43.90;;;;;;5033153;28;20188;-53
2023/01/09 12:02:04;;;;;;;2.63;1.00;;;13.10;43.40;;;;;;5032841;28;20213;-53
2023/01/09 12:04:39;;;;;;;2.35;0.90;;;13.30;42.90;;;;;;5032652;28;20669;-53
2023/01/09 12:07:16;;;;;;;1.10;0.50;;;13.40;40.70;;;;;;5032920;28;20185;-53
2023/01/09 12:09:59;;;;;;;1.90;1.13;;;13.90;42.80;;;;;;5032852;28;20641;-53
2023/01/09 12:12:45;;;;;;;4.38;1.10;;;14.40;42.10;;;;;;5032760;28;20618;-53
2023/01/09 12:15:32;;;;;;;1.33;0.80;;;14.60;41.30;;;;;;5032512;28;20196;-53
2023/01/09 12:18:06;;;;;;;2.22;0.73;;;14.90;40.90;;;;;;5032830;28;20257;-53
2023/01/09 12:21:03;;;;;;;1.52;0.60;;;15.00;40.40;;;;;;5032425;28;20320;-53
2023/01/09 12:23:40;;;;;;;1.50;0.80;;;15.00;39.30;;;;;;5032906;28;20174;-53
2023/01/09 12:26:23;;;;;;;1.20;0.75;;;14.90;38.70;;;;;;5032209;28;20201;-53
2023/01/09 12:29:15;;;;;;;3.58;1.25;;;15.00;39.20;;;;;;5032503;28;20194;-53
2023/01/09 12:32:04;;;;;;;2.08;1.40;;;15.50;38.90;;;;;;5032374;28;20253;-54
2023/01/09 12:34:42;;;;;;;2.03;0.90;;;16.30;37.70;;;;;;5032198;28;20190;-54
2023/01/09 12:37:45;;;;;;;1.33;0.80;;;17.40;36.70;;;;;;5032298;28;20205;-54
2023/01/09 12:40:32;;;;;;;1.20;0.60;;;17.70;34.80;;;;;;5031703;28;20174;-54
2023/01/09 12:43:10;;;;;;;1.23;0.70;;;17.20;34.00;;;;;;5032599;28;20158;-53
2023/01/09 12:46:12;;;;;;;3.20;1.10;;;16.50;34.10;;;;;;5031898;28;20216;-54
2023/01/09 12:48:56;;;;;;;1.50;0.73;;;16.00;35.50;;;;;;5032364;28;20211;-53
2023/01/09 12:51:34;;;;;;;2.70;0.95;;;15.70;34.90;;;;;;5032377;28;20274;-53
2023/01/09 12:54:38;;;;;;;1.65;1.05;;;15.80;36.40;;;;;;5032095;28;20265;-52
2023/01/09 12:57:14;;;;;;;4.45;1.63;;;15.60;36.30;;;;;;5010035;28;20218;-53
2023/01/09 12:59:57;;;;;;;2.55;1.05;;;15.40;36.20;;;;;;5028949;28;20177;-53
2023/01/09 13:02:43;;;;;;;1.83;1.50;;;15.30;37.30;;;;;;5032012;28;20239;-53
2023/01/09 13:05:14;;;;;;;1.70;0.80;;;15.10;37.00;;;;;;5031467;28;20202;-54
2023/01/09 13:07:46;;;;;;;2.25;1.20;;;15.10;37.10;;;;;;5032066;28;20249;-54
2023/01/09 13:10:25;;;;;;;1.63;0.80;;;15.40;37.20;;;;;;5031973;28;20201;-53